sensor_id;sensor_type;location;lat;lon;timestamp;pressure;altitude;pressure_sealevel;temperature;humidity
5053;BME280;2545;50.892;5.740;2022-09-09T00:01:43;56106.22;;;-142.21;100.00
5053;BME280;2545;50.892;5.740;2022-09-09T00:04:26;56104.25;;;-142.21;100.00
5053;BME280;2545;50.892;5.740;2022-09-09T00:06:59;56137.59;;;-142.21;100.00
5053;BME280;2545;50.892;5.740;2022-09-09T00:09:29;56137.59;;;-142.21;100.00
5053;BME280;2545;50.892;5.740;2022-09-09T00:12:02;56137.59;;;-142.21;100.00
5053;BME280;2545;50.892;5.740;2022-09-09T00:17:31;56098.38;;;-142.21;100.00
5053;BME280;2545;50.892;5.740;2022-09-09T00:20:49;56149.34;;;-142.21;100.00
5053;BME280;2545;50.892;5.740;2022-09-09T00:22:56;56163.06;;;-142.21;100.00
5053;BME280;2545;50.892;5.740;2022-09-09T00:25:30;56094.44;;;-142.21;100.00
5053;BME280;2545;50.892;5.740;2022-09-09T00:27:59;56153.28;;;-142.21;100.00
5053;BME280;2545;50.892;5.740;2022-09-09T00:30:32;56151.31;;;-142.21;100.00
5053;BME280;2545;50.892;5.740;2022-09-09T00:33:11;56108.16;;;-142.21;100.00
5053;BME280;2545;50.892;5.740;2022-09-09T00:36:04;56135.63;;;-142.21;100.00
5053;BME280;2545;50.892;5.740;2022-09-09T00:38:38;56135.63;;;-142.21;100.00
5053;BME280;2545;50.892;5.740;2022-09-09T00:41:17;56098.38;;;-142.21;100.00
5053;BME280;2545;50.892;5.740;2022-09-09T00:43:54;56121.91;;;-142.21;100.00
5053;BME280;2545;50.892;5.740;2022-09-09T00:46:37;56100.31;;;-142.21;100.00
5053;BME280;2545;50.892;5.740;2022-09-09T00:54:34;56137.59;;;-142.21;100.00
5053;BME280;2545;50.892;5.740;2022-09-09T00:59:47;56121.91;;;-142.21;100.00
5053;BME280;2545;50.892;5.740;2022-09-09T01:02:21;56129.75;;;-142.21;100.00
5053;BME280;2545;50.892;5.740;2022-09-09T01:04:50;56129.75;;;-142.21;100.00
5053;BME280;2545;50.892;5.740;2022-09-09T01:07:17;56121.91;;;-142.21;100.00
5053;BME280;2545;50.892;5.740;2022-09-09T01:09:52;56112.09;;;-142.21;100.00
5053;BME280;2545;50.892;5.740;2022-09-09T01:12:41;56112.09;;;-142.21;100.00
5053;BME280;2545;50.892;5.740;2022-09-09T01:15:24;56127.78;;;-142.21;100.00
5053;BME280;2545;50.892;5.740;2022-09-09T01:18:17;56090.53;;;-142.21;100.00
5053;BME280;2545;50.892;5.740;2022-09-09T01:26:33;56092.47;;;-142.21;100.00
5053;BME280;2545;50.892;5.740;2022-09-09T01:29:00;56155.22;;;-142.21;100.00
5053;BME280;2545;50.892;5.740;2022-09-09T01:31:32;56100.31;;;-142.21;100.00
5053;BME280;2545;50.892;5.740;2022-09-09T01:34:00;56170.91;;;-142.21;100.00
5053;BME280;2545;50.892;5.740;2022-09-09T01:36:31;56131.69;;;-142.21;100.00
5053;BME280;2545;50.892;5.740;2022-09-09T01:38:58;56133.66;;;-142.21;100.00
5053;BME280;2545;50.892;5.740;2022-09-09T01:41:24;56116.00;;;-142.21;100.00
5053;BME280;2545;50.892;5.740;2022-09-09T01:43:49;56168.97;;;-142.21;100.00
5053;BME280;2545;50.892;5.740;2022-09-09T01:46:17;56119.94;;;-142.21;100.00
5053;BME280;2545;50.892;5.740;2022-09-09T01:48:44;56135.63;;;-142.21;100.00
5053;BME280;2545;50.892;5.740;2022-09-09T01:51:10;56139.53;;;-142.21;100.00
5053;BME280;2545;50.892;5.740;2022-09-09T01:53:36;56065.03;;;-142.21;100.00
5053;BME280;2545;50.892;5.740;2022-09-09T01:58:57;56127.78;;;-142.21;100.00
5053;BME280;2545;50.892;5.740;2022-09-09T02:01:58;56110.13;;;-142.21;100.00
5053;BME280;2545;50.892;5.740;2022-09-09T02:04:39;56078.75;;;-142.21;100.00
5053;BME280;2545;50.892;5.740;2022-09-09T02:07:16;56137.59;;;-142.21;100.00
5053;BME280;2545;50.892;5.740;2022-09-09T02:09:44;56094.44;;;-142.21;100.00
5053;BME280;2545;50.892;5.740;2022-09-09T02:12:14;56088.56;;;-142.21;100.00
5053;BME280;2545;50.892;5.740;2022-09-09T02:14:47;56145.44;;;-142.21;100.00
5053;BME280;2545;50.892;5.740;2022-09-09T02:17:26;56116.00;;;-142.21;100.00
5053;BME280;2545;50.892;5.740;2022-09-09T02:20:14;56147.38;;;-142.21;100.00
5053;BME280;2545;50.892;5.740;2022-09-09T02:22:43;56129.75;;;-142.21;100.00
5053;BME280;2545;50.892;5.740;2022-09-09T02:25:11;56092.47;;;-142.21;100.00
5053;BME280;2545;50.892;5.740;2022-09-09T02:27:40;56096.41;;;-142.21;100.00
5053;BME280;2545;50.892;5.740;2022-09-09T02:30:07;56141.50;;;-142.21;100.00
5053;BME280;2545;50.892;5.740;2022-09-09T02:32:35;56168.97;;;-142.21;100.00
5053;BME280;2545;50.892;5.740;2022-09-09T02:35:08;56131.69;;;-142.21;100.00
5053;BME280;2545;50.892;5.740;2022-09-09T02:37:38;56147.38;;;-142.21;100.00
5053;BME280;2545;50.892;5.740;2022-09-09T02:40:05;56125.81;;;-142.21;100.00
5053;BME280;2545;50.892;5.740;2022-09-09T02:42:32;56110.13;;;-142.21;100.00
5053;BME280;2545;50.892;5.740;2022-09-09T02:44:57;56119.94;;;-142.21;100.00
5053;BME280;2545;50.892;5.740;2022-09-09T02:47:34;56104.25;;;-142.21;100.00
5053;BME280;2545;50.892;5.740;2022-09-09T02:52:47;56116.00;;;-142.21;100.00
5053;BME280;2545;50.892;5.740;2022-09-09T02:55:24;56108.16;;;-142.21;100.00
5053;BME280;2545;50.892;5.740;2022-09-09T02:57:55;56141.50;;;-142.21;100.00
5053;BME280;2545;50.892;5.740;2022-09-09T03:00:26;56121.91;;;-142.21;100.00
5053;BME280;2545;50.892;5.740;2022-09-09T03:02:52;56112.09;;;-142.21;100.00
5053;BME280;2545;50.892;5.740;2022-09-09T03:05:18;56135.63;;;-142.21;100.00
5053;BME280;2545;50.892;5.740;2022-09-09T03:07:43;56186.59;;;-142.21;100.00
5053;BME280;2545;50.892;5.740;2022-09-09T03:10:09;56151.31;;;-142.21;100.00
5053;BME280;2545;50.892;5.740;2022-09-09T03:12:35;56100.31;;;-142.21;100.00
5053;BME280;2545;50.892;5.740;2022-09-09T03:15:00;56139.53;;;-142.21;100.00
5053;BME280;2545;50.892;5.740;2022-09-09T03:17:26;56129.75;;;-142.21;100.00
5053;BME280;2545;50.892;5.740;2022-09-09T03:19:53;56145.44;;;-142.21;100.00
5053;BME280;2545;50.892;5.740;2022-09-09T03:22:19;56108.16;;;-142.21;100.00
5053;BME280;2545;50.892;5.740;2022-09-09T03:24:45;56135.63;;;-142.21;100.00
5053;BME280;2545;50.892;5.740;2022-09-09T03:27:12;56114.06;;;-142.21;100.00
5053;BME280;2545;50.892;5.740;2022-09-09T03:29:37;56114.06;;;-142.21;100.00
5053;BME280;2545;50.892;5.740;2022-09-09T03:32:02;56119.94;;;-142.21;100.00
5053;BME280;2545;50.892;5.740;2022-09-09T03:34:27;56112.09;;;-142.21;100.00
5053;BME280;2545;50.892;5.740;2022-09-09T03:36:53;56108.16;;;-142.21;100.00
5053;BME280;2545;50.892;5.740;2022-09-09T03:39:18;56116.00;;;-142.21;100.00
5053;BME280;2545;50.892;5.740;2022-09-09T03:41:43;56098.38;;;-142.21;100.00
5053;BME280;2545;50.892;5.740;2022-09-09T03:44:12;56145.44;;;-142.21;100.00
5053;BME280;2545;50.892;5.740;2022-09-09T03:46:38;56133.66;;;-142.21;100.00
5053;BME280;2545;50.892;5.740;2022-09-09T03:49:03;56131.69;;;-142.21;100.00
5053;BME280;2545;50.892;5.740;2022-09-09T03:51:29;56165.03;;;-142.21;100.00
5053;BME280;2545;50.892;5.740;2022-09-09T03:53:54;56135.63;;;-142.21;100.00
5053;BME280;2545;50.892;5.740;2022-09-09T03:56:21;56108.16;;;-142.21;100.00
5053;BME280;2545;50.892;5.740;2022-09-09T03:58:47;56102.28;;;-142.21;100.00
5053;BME280;2545;50.892;5.740;2022-09-09T04:01:13;56125.81;;;-142.21;100.00
5053;BME280;2545;50.892;5.740;2022-09-09T04:03:39;56100.31;;;-142.21;100.00
5053;BME280;2545;50.892;5.740;2022-09-09T04:06:07;56127.78;;;-142.21;100.00
5053;BME280;2545;50.892;5.740;2022-09-09T04:08:34;56121.91;;;-142.21;100.00
5053;BME280;2545;50.892;5.740;2022-09-09T04:11:00;56082.69;;;-142.21;100.00
5053;BME280;2545;50.892;5.740;2022-09-09T04:13:27;56112.09;;;-142.21;100.00
5053;BME280;2545;50.892;5.740;2022-09-09T04:15:57;56106.22;;;-142.21;100.00
5053;BME280;2545;50.892;5.740;2022-09-09T04:18:23;56096.41;;;-142.21;100.00
5053;BME280;2545;50.892;5.740;2022-09-09T04:20:50;56112.09;;;-142.21;100.00
5053;BME280;2545;50.892;5.740;2022-09-09T04:23:16;56070.91;;;-142.21;100.00
5053;BME280;2545;50.892;5.740;2022-09-09T04:25:45;56106.22;;;-142.21;100.00
5053;BME280;2545;50.892;5.740;2022-09-09T04:28:12;56108.16;;;-142.21;100.00
5053;BME280;2545;50.892;5.740;2022-09-09T04:30:37;56110.13;;;-142.21;100.00
5053;BME280;2545;50.892;5.740;2022-09-09T04:33:04;56080.72;;;-142.21;100.00
5053;BME280;2545;50.892;5.740;2022-09-09T04:35:30;56112.09;;;-142.21;100.00
5053;BME280;2545;50.892;5.740;2022-09-09T04:37:56;56092.47;;;-142.21;100.00
5053;BME280;2545;50.892;5.740;2022-09-09T04:40:21;56121.91;;;-142.21;100.00
5053;BME280;2545;50.892;5.740;2022-09-09T04:42:47;56067.00;;;-142.21;100.00
5053;BME280;2545;50.892;5.740;2022-09-09T04:45:13;56119.94;;;-142.21;100.00
5053;BME280;2545;50.892;5.740;2022-09-09T04:47:39;56114.06;;;-142.21;100.00
5053;BME280;2545;50.892;5.740;2022-09-09T04:50:04;56121.91;;;-142.21;100.00
5053;BME280;2545;50.892;5.740;2022-09-09T04:52:30;56112.09;;;-142.21;100.00
5053;BME280;2545;50.892;5.740;2022-09-09T04:54:55;56145.44;;;-142.21;100.00
5053;BME280;2545;50.892;5.740;2022-09-09T04:57:20;56082.69;;;-142.21;100.00
5053;BME280;2545;50.892;5.740;2022-09-09T04:59:46;56135.63;;;-142.21;100.00
5053;BME280;2545;50.892;5.740;2022-09-09T05:02:11;56117.97;;;-142.21;100.00
5053;BME280;2545;50.892;5.740;2022-09-09T05:04:37;56076.78;;;-142.21;100.00
5053;BME280;2545;50.892;5.740;2022-09-09T05:07:02;56112.09;;;-142.21;100.00
5053;BME280;2545;50.892;5.740;2022-09-09T05:09:27;56106.22;;;-142.21;100.00
5053;BME280;2545;50.892;5.740;2022-09-09T05:11:53;56131.69;;;-142.21;100.00
5053;BME280;2545;50.892;5.740;2022-09-09T05:14:19;56125.81;;;-142.21;100.00
5053;BME280;2545;50.892;5.740;2022-09-09T05:16:45;56135.63;;;-142.21;100.00
5053;BME280;2545;50.892;5.740;2022-09-09T05:19:12;56117.97;;;-142.21;100.00
5053;BME280;2545;50.892;5.740;2022-09-09T05:21:37;56141.50;;;-142.21;100.00
5053;BME280;2545;50.892;5.740;2022-09-09T05:24:03;56137.59;;;-142.21;100.00
5053;BME280;2545;50.892;5.740;2022-09-09T05:26:28;56084.63;;;-142.21;100.00
5053;BME280;2545;50.892;5.740;2022-09-09T05:28:54;56117.97;;;-142.21;100.00
5053;BME280;2545;50.892;5.740;2022-09-09T05:31:20;56131.69;;;-142.21;100.00
5053;BME280;2545;50.892;5.740;2022-09-09T05:33:47;56167.00;;;-142.21;100.00
5053;BME280;2545;50.892;5.740;2022-09-09T05:36:15;56135.63;;;-142.21;100.00
5053;BME280;2545;50.892;5.740;2022-09-09T05:38:42;56139.53;;;-142.21;100.00
5053;BME280;2545;50.892;5.740;2022-09-09T05:41:08;56121.91;;;-142.21;100.00
5053;BME280;2545;50.892;5.740;2022-09-09T05:43:35;56117.97;;;-142.21;100.00
5053;BME280;2545;50.892;5.740;2022-09-09T05:46:08;56112.09;;;-142.21;100.00
5053;BME280;2545;50.892;5.740;2022-09-09T05:48:39;56068.94;;;-142.21;100.00
5053;BME280;2545;50.892;5.740;2022-09-09T05:51:05;56149.34;;;-142.21;100.00
5053;BME280;2545;50.892;5.740;2022-09-09T05:53:34;56110.13;;;-142.21;100.00
5053;BME280;2545;50.892;5.740;2022-09-09T05:58:33;56110.13;;;-142.21;100.00
5053;BME280;2545;50.892;5.740;2022-09-09T06:01:14;56141.50;;;-142.21;100.00
5053;BME280;2545;50.892;5.740;2022-09-09T06:03:40;56080.72;;;-142.21;100.00
5053;BME280;2545;50.892;5.740;2022-09-09T06:06:08;56143.47;;;-142.21;100.00
5053;BME280;2545;50.892;5.740;2022-09-09T06:08:36;56123.84;;;-142.21;100.00
5053;BME280;2545;50.892;5.740;2022-09-09T06:11:08;56135.63;;;-142.21;100.00
5053;BME280;2545;50.892;5.740;2022-09-09T06:13:34;56147.38;;;-142.21;100.00
5053;BME280;2545;50.892;5.740;2022-09-09T06:16:00;56143.47;;;-142.21;100.00
5053;BME280;2545;50.892;5.740;2022-09-09T06:18:26;56106.22;;;-142.21;100.00
5053;BME280;2545;50.892;5.740;2022-09-09T06:20:59;56125.81;;;-142.21;100.00
5053;BME280;2545;50.892;5.740;2022-09-09T06:23:26;56086.59;;;-142.21;100.00
5053;BME280;2545;50.892;5.740;2022-09-09T06:26:00;56119.94;;;-142.21;100.00
5053;BME280;2545;50.892;5.740;2022-09-09T06:28:25;56088.56;;;-142.21;100.00
5053;BME280;2545;50.892;5.740;2022-09-09T06:30:57;56108.16;;;-142.21;100.00
5053;BME280;2545;50.892;5.740;2022-09-09T06:33:23;56133.66;;;-142.21;100.00
5053;BME280;2545;50.892;5.740;2022-09-09T06:35:52;56100.31;;;-142.21;100.00
5053;BME280;2545;50.892;5.740;2022-09-09T06:38:18;56119.94;;;-142.21;100.00
5053;BME280;2545;50.892;5.740;2022-09-09T06:40:53;56076.78;;;-142.21;100.00
5053;BME280;2545;50.892;5.740;2022-09-09T06:43:21;56098.38;;;-142.21;100.00
5053;BME280;2545;50.892;5.740;2022-09-09T06:48:18;56127.78;;;-142.21;100.00
5053;BME280;2545;50.892;5.740;2022-09-09T06:50:44;56092.47;;;-142.21;100.00
5053;BME280;2545;50.892;5.740;2022-09-09T06:53:09;56078.75;;;-142.21;100.00
5053;BME280;2545;50.892;5.740;2022-09-09T06:55:34;56143.47;;;-142.21;100.00
5053;BME280;2545;50.892;5.740;2022-09-09T06:58:00;56117.97;;;-142.21;100.00
5053;BME280;2545;50.892;5.740;2022-09-09T07:00:25;56090.53;;;-142.21;100.00
5053;BME280;2545;50.892;5.740;2022-09-09T07:02:50;56112.09;;;-142.21;100.00
5053;BME280;2545;50.892;5.740;2022-09-09T07:05:16;56110.13;;;-142.21;100.00
5053;BME280;2545;50.892;5.740;2022-09-09T07:07:41;56123.84;;;-142.21;100.00
5053;BME280;2545;50.892;5.740;2022-09-09T07:10:07;56076.78;;;-142.21;100.00
5053;BME280;2545;50.892;5.740;2022-09-09T07:12:32;56108.16;;;-142.21;100.00
5053;BME280;2545;50.892;5.740;2022-09-09T07:14:57;56084.63;;;-142.21;100.00
5053;BME280;2545;50.892;5.740;2022-09-09T07:17:23;56088.56;;;-142.21;100.00
5053;BME280;2545;50.892;5.740;2022-09-09T07:19:48;56117.97;;;-142.21;100.00
5053;BME280;2545;50.892;5.740;2022-09-09T07:22:13;56129.75;;;-142.21;100.00
5053;BME280;2545;50.892;5.740;2022-09-09T07:24:39;56143.47;;;-142.21;100.00
5053;BME280;2545;50.892;5.740;2022-09-09T07:27:04;56080.72;;;-142.21;100.00
5053;BME280;2545;50.892;5.740;2022-09-09T07:29:30;56072.88;;;-142.21;100.00
5053;BME280;2545;50.892;5.740;2022-09-09T07:31:56;56082.69;;;-142.21;100.00
5053;BME280;2545;50.892;5.740;2022-09-09T07:34:21;56092.47;;;-142.21;100.00
5053;BME280;2545;50.892;5.740;2022-09-09T07:36:47;56088.56;;;-142.21;100.00
5053;BME280;2545;50.892;5.740;2022-09-09T07:39:14;56080.72;;;-142.21;100.00
5053;BME280;2545;50.892;5.740;2022-09-09T07:41:42;56110.13;;;-142.21;100.00
5053;BME280;2545;50.892;5.740;2022-09-09T07:44:19;56096.41;;;-142.21;100.00
5053;BME280;2545;50.892;5.740;2022-09-09T07:46:46;56074.84;;;-142.21;100.00
5053;BME280;2545;50.892;5.740;2022-09-09T07:49:13;56123.84;;;-142.21;96.59
5053;BME280;2545;50.892;5.740;2022-09-09T07:51:41;56049.34;;;-142.21;95.95
5053;BME280;2545;50.892;5.740;2022-09-09T07:54:10;56082.69;;;-142.21;93.99
5053;BME280;2545;50.892;5.740;2022-09-09T07:56:36;56068.94;;;-142.21;95.35
5053;BME280;2545;50.892;5.740;2022-09-09T07:59:02;56053.25;;;-142.21;93.41
5053;BME280;2545;50.892;5.740;2022-09-09T08:01:34;56068.94;;;-142.21;94.68
5053;BME280;2545;50.892;5.740;2022-09-09T08:04:07;56084.63;;;-142.21;95.51
5053;BME280;2545;50.892;5.740;2022-09-09T08:06:38;56074.84;;;-142.21;96.17
5053;BME280;2545;50.892;5.740;2022-09-09T08:09:05;56098.38;;;-142.21;94.51
5053;BME280;2545;50.892;5.740;2022-09-09T08:11:32;56072.88;;;-142.21;94.19
5053;BME280;2545;50.892;5.740;2022-09-09T08:14:01;56061.09;;;-142.21;95.17
5053;BME280;2545;50.892;5.740;2022-09-09T08:16:29;56096.41;;;-142.21;94.08
5053;BME280;2545;50.892;5.740;2022-09-09T08:18:56;56076.78;;;-142.21;92.54
5053;BME280;2545;50.892;5.740;2022-09-09T08:21:24;56010.13;;;-142.21;91.01
5053;BME280;2545;50.892;5.740;2022-09-09T08:23:51;56076.78;;;-142.21;93.32
5053;BME280;2545;50.892;5.740;2022-09-09T08:26:20;56067.00;;;-142.21;89.20
5053;BME280;2545;50.892;5.740;2022-09-09T08:28:52;56076.78;;;-142.21;87.04
5053;BME280;2545;50.892;5.740;2022-09-09T08:33:44;56051.31;;;-142.21;87.12
5053;BME280;2545;50.892;5.740;2022-09-09T08:36:19;56055.22;;;-142.21;85.53
5053;BME280;2545;50.892;5.740;2022-09-09T08:38:56;56057.19;;;-142.21;82.24
5053;BME280;2545;50.892;5.740;2022-09-09T08:47:17;56121.91;;;-142.21;81.15
5053;BME280;2545;50.892;5.740;2022-09-09T08:58:13;56057.19;;;-142.21;78.91
5053;BME280;2545;50.892;5.740;2022-09-09T09:03:53;56057.19;;;-142.21;81.03
5053;BME280;2545;50.892;5.740;2022-09-09T09:11:53;56074.84;;;-142.21;76.94
5053;BME280;2545;50.892;5.740;2022-09-09T09:14:28;56076.78;;;-142.21;75.51
5053;BME280;2545;50.892;5.740;2022-09-09T09:17:04;56076.78;;;-142.21;77.58
5053;BME280;2545;50.892;5.740;2022-09-09T09:19:33;56068.94;;;-142.21;79.83
5053;BME280;2545;50.892;5.740;2022-09-09T09:22:10;56092.47;;;-142.21;80.25
5053;BME280;2545;50.892;5.740;2022-09-09T09:27:14;56055.22;;;-142.21;83.29
5053;BME280;2545;50.892;5.740;2022-09-09T09:29:41;56092.47;;;-142.21;84.82
5053;BME280;2545;50.892;5.740;2022-09-09T09:32:13;56070.91;;;-142.21;83.63
5053;BME280;2545;50.892;5.740;2022-09-09T09:34:39;56078.75;;;-142.21;84.74
5053;BME280;2545;50.892;5.740;2022-09-09T09:37:17;56070.91;;;-142.21;83.71
5053;BME280;2545;50.892;5.740;2022-09-09T09:39:47;56055.22;;;-142.21;82.81
5053;BME280;2545;50.892;5.740;2022-09-09T09:42:16;56088.56;;;-142.21;83.50
5053;BME280;2545;50.892;5.740;2022-09-09T09:44:42;56072.88;;;-142.21;84.40
5053;BME280;2545;50.892;5.740;2022-09-09T09:49:38;56100.31;;;-142.21;87.95
5053;BME280;2545;50.892;5.740;2022-09-09T09:52:06;56098.38;;;-142.21;92.56
5053;BME280;2545;50.892;5.740;2022-09-09T09:54:41;56063.06;;;-142.21;91.22
5053;BME280;2545;50.892;5.740;2022-09-09T09:57:14;56078.75;;;-142.21;89.53
5053;BME280;2545;50.892;5.740;2022-09-09T09:59:41;56035.63;;;-142.21;83.82
5053;BME280;2545;50.892;5.740;2022-09-09T10:02:14;56088.56;;;-142.21;80.22
5053;BME280;2545;50.892;5.740;2022-09-09T10:04:40;56059.16;;;-142.21;76.44
5053;BME280;2545;50.892;5.740;2022-09-09T10:07:20;56086.59;;;-142.21;75.62
5053;BME280;2545;50.892;5.740;2022-09-09T10:09:50;56045.41;;;-142.21;73.54
5053;BME280;2545;50.892;5.740;2022-09-09T10:20:56;56049.34;;;-142.21;67.80
5053;BME280;2545;50.892;5.740;2022-09-09T10:34:23;56033.66;;;-142.21;70.17
5053;BME280;2545;50.892;5.740;2022-09-09T10:36:52;56025.81;;;-142.21;68.85
5053;BME280;2545;50.892;5.740;2022-09-09T10:39:38;56094.44;;;-142.21;70.66
5053;BME280;2545;50.892;5.740;2022-09-09T10:42:14;56049.34;;;-142.21;76.10
5053;BME280;2545;50.892;5.740;2022-09-09T10:50:47;56051.31;;;-142.21;82.22
5053;BME280;2545;50.892;5.740;2022-09-09T10:53:37;56100.31;;;-142.21;90.62
5053;BME280;2545;50.892;5.740;2022-09-09T10:56:09;56067.00;;;-142.21;100.00
5053;BME280;2545;50.892;5.740;2022-09-09T10:58:55;56112.09;;;-142.21;100.00
5053;BME280;2545;50.892;5.740;2022-09-09T11:01:25;56051.31;;;-142.21;100.00
5053;BME280;2545;50.892;5.740;2022-09-09T11:04:01;56092.47;;;-142.21;100.00
5053;BME280;2545;50.892;5.740;2022-09-09T11:06:34;56102.28;;;-142.21;100.00
5053;BME280;2545;50.892;5.740;2022-09-09T11:09:02;56084.63;;;-142.21;100.00
5053;BME280;2545;50.892;5.740;2022-09-09T11:11:43;56159.16;;;-142.21;100.00
5053;BME280;2545;50.892;5.740;2022-09-09T11:14:28;56123.84;;;-142.21;100.00
5053;BME280;2545;50.892;5.740;2022-09-09T11:17:05;56096.41;;;-142.21;100.00
5053;BME280;2545;50.892;5.740;2022-09-09T11:19:35;56143.47;;;-142.21;100.00
5053;BME280;2545;50.892;5.740;2022-09-09T11:24:45;56088.56;;;-142.21;100.00
5053;BME280;2545;50.892;5.740;2022-09-09T11:27:21;56170.91;;;-142.21;100.00
5053;BME280;2545;50.892;5.740;2022-09-09T11:30:10;56078.75;;;-142.21;100.00
5053;BME280;2545;50.892;5.740;2022-09-09T11:35:41;56112.09;;;-142.21;100.00
5053;BME280;2545;50.892;5.740;2022-09-09T11:38:28;56084.63;;;-142.21;100.00
5053;BME280;2545;50.892;5.740;2022-09-09T11:41:07;56110.13;;;-142.21;100.00
5053;BME280;2545;50.892;5.740;2022-09-09T11:43:39;56112.09;;;-142.21;100.00
5053;BME280;2545;50.892;5.740;2022-09-09T11:46:06;56123.84;;;-142.21;100.00
5053;BME280;2545;50.892;5.740;2022-09-09T11:48:35;56114.06;;;-142.21;100.00
5053;BME280;2545;50.892;5.740;2022-09-09T11:53:35;56131.69;;;-142.21;100.00
5053;BME280;2545;50.892;5.740;2022-09-09T11:56:13;56086.59;;;-142.21;98.78
5053;BME280;2545;50.892;5.740;2022-09-09T11:58:42;56080.72;;;-142.21;92.96
5053;BME280;2545;50.892;5.740;2022-09-09T12:01:26;56110.13;;;-142.21;92.09
5053;BME280;2545;50.892;5.740;2022-09-09T12:04:05;56078.75;;;-142.21;90.06
5053;BME280;2545;50.892;5.740;2022-09-09T12:06:51;56039.53;;;-142.21;89.08
5053;BME280;2545;50.892;5.740;2022-09-09T12:09:18;56100.31;;;-142.21;82.54
5053;BME280;2545;50.892;5.740;2022-09-09T12:11:45;56037.56;;;-142.21;80.96
5053;BME280;2545;50.892;5.740;2022-09-09T12:16:46;56051.31;;;-142.21;87.27
5053;BME280;2545;50.892;5.740;2022-09-09T12:22:04;56108.16;;;-142.21;88.75
5053;BME280;2545;50.892;5.740;2022-09-09T12:24:43;56092.47;;;-142.21;89.95
5053;BME280;2545;50.892;5.740;2022-09-09T12:27:20;56112.09;;;-142.21;91.38
5053;BME280;2545;50.892;5.740;2022-09-09T12:30:12;56074.84;;;-142.21;87.59
5053;BME280;2545;50.892;5.740;2022-09-09T12:32:40;56049.34;;;-142.21;85.85
5053;BME280;2545;50.892;5.740;2022-09-09T12:35:12;56092.47;;;-142.21;85.15
5053;BME280;2545;50.892;5.740;2022-09-09T12:40:22;56045.41;;;-142.21;84.09
5053;BME280;2545;50.892;5.740;2022-09-09T12:42:48;56065.03;;;-142.21;67.92
5053;BME280;2545;50.892;5.740;2022-09-09T12:50:37;56051.31;;;-142.21;60.68
5053;BME280;2545;50.892;5.740;2022-09-09T12:53:11;56014.06;;;-142.21;61.27
5053;BME280;2545;50.892;5.740;2022-09-09T12:55:49;56029.72;;;-142.21;60.66
5053;BME280;2545;50.892;5.740;2022-09-09T12:58:16;56014.06;;;-142.21;64.69
5053;BME280;2545;50.892;5.740;2022-09-09T13:00:53;56063.06;;;-142.21;71.66
5053;BME280;2545;50.892;5.740;2022-09-09T13:03:21;56047.38;;;-142.21;73.41
5053;BME280;2545;50.892;5.740;2022-09-09T13:05:48;56055.22;;;-142.21;74.48
5053;BME280;2545;50.892;5.740;2022-09-09T13:08:15;56033.66;;;-142.21;75.18
5053;BME280;2545;50.892;5.740;2022-09-09T13:10:51;56065.03;;;-142.21;70.34
5053;BME280;2545;50.892;5.740;2022-09-09T13:13:42;56061.09;;;-142.21;76.65
5053;BME280;2545;50.892;5.740;2022-09-09T13:16:20;56147.38;;;-142.21;80.78
5053;BME280;2545;50.892;5.740;2022-09-09T13:18:46;56074.84;;;-142.21;87.93
5053;BME280;2545;50.892;5.740;2022-09-09T13:21:12;56096.41;;;-142.21;100.00
5053;BME280;2545;50.892;5.740;2022-09-09T13:23:38;56067.00;;;-142.21;100.00
5053;BME280;2545;50.892;5.740;2022-09-09T13:26:06;56106.22;;;-142.21;100.00
5053;BME280;2545;50.892;5.740;2022-09-09T13:28:46;56157.19;;;-142.21;100.00
5053;BME280;2545;50.892;5.740;2022-09-09T13:31:28;56141.50;;;-142.21;100.00
5053;BME280;2545;50.892;5.740;2022-09-09T13:33:54;56116.00;;;-142.21;100.00
5053;BME280;2545;50.892;5.740;2022-09-09T13:36:34;56114.06;;;-142.21;100.00
5053;BME280;2545;50.892;5.740;2022-09-09T13:39:01;56104.25;;;-142.21;100.00
5053;BME280;2545;50.892;5.740;2022-09-09T13:41:44;56137.59;;;-142.21;100.00
5053;BME280;2545;50.892;5.740;2022-09-09T13:44:31;56155.22;;;-142.21;100.00
5053;BME280;2545;50.892;5.740;2022-09-09T13:47:19;56131.69;;;-142.21;100.00
5053;BME280;2545;50.892;5.740;2022-09-09T13:49:45;56149.34;;;-142.21;100.00
5053;BME280;2545;50.892;5.740;2022-09-09T13:52:13;56123.84;;;-142.21;100.00
5053;BME280;2545;50.892;5.740;2022-09-09T13:54:39;56119.94;;;-142.21;100.00
5053;BME280;2545;50.892;5.740;2022-09-09T13:57:05;56104.25;;;-142.21;100.00
5053;BME280;2545;50.892;5.740;2022-09-09T13:59:30;56125.81;;;-142.21;100.00
5053;BME280;2545;50.892;5.740;2022-09-09T14:01:56;56100.31;;;-142.21;100.00
5053;BME280;2545;50.892;5.740;2022-09-09T14:04:22;56053.25;;;-142.21;100.00
5053;BME280;2545;50.892;5.740;2022-09-09T14:06:48;56106.22;;;-142.21;100.00
5053;BME280;2545;50.892;5.740;2022-09-09T14:09:15;56117.97;;;-142.21;100.00
5053;BME280;2545;50.892;5.740;2022-09-09T14:11:41;56112.09;;;-142.21;100.00
5053;BME280;2545;50.892;5.740;2022-09-09T14:14:07;56070.91;;;-142.21;100.00
5053;BME280;2545;50.892;5.740;2022-09-09T14:16:33;56127.78;;;-142.21;97.65
5053;BME280;2545;50.892;5.740;2022-09-09T14:18:58;56100.31;;;-142.21;91.26
5053;BME280;2545;50.892;5.740;2022-09-09T14:21:25;56090.53;;;-142.21;90.21
5053;BME280;2545;50.892;5.740;2022-09-09T14:23:52;56057.19;;;-142.21;92.64
5053;BME280;2545;50.892;5.740;2022-09-09T14:26:21;56088.56;;;-142.21;88.45
5053;BME280;2545;50.892;5.740;2022-09-09T14:28:47;56049.34;;;-142.21;86.59
5053;BME280;2545;50.892;5.740;2022-09-09T14:31:12;56002.28;;;-142.21;78.45
5053;BME280;2545;50.892;5.740;2022-09-09T14:33:38;56072.88;;;-142.21;76.43
5053;BME280;2545;50.892;5.740;2022-09-09T14:36:04;56061.09;;;-142.21;85.31
5053;BME280;2545;50.892;5.740;2022-09-09T14:38:34;56021.88;;;-142.21;70.47
5053;BME280;2545;50.892;5.740;2022-09-09T14:41:04;56065.03;;;-142.21;71.78
5053;BME280;2545;50.892;5.740;2022-09-09T14:43:29;56106.22;;;-142.21;70.66
5053;BME280;2545;50.892;5.740;2022-09-09T14:45:58;56029.72;;;-142.21;68.86
5053;BME280;2545;50.892;5.740;2022-09-09T14:48:23;55998.38;;;-142.21;62.35
5053;BME280;2545;50.892;5.740;2022-09-09T14:50:48;56029.72;;;-142.21;61.34
5053;BME280;2545;50.892;5.740;2022-09-09T14:53:16;56006.22;;;-142.21;75.73